Time;durP1;ratioP1;P1;durP2;ratioP2;P2;SDS_P1;SDS_P2;PMS_P1;PMS_P2;Temp;Humidity;BMP_temperature;BMP_pressure;BME280_temperature;BME280_humidity;BME280_pressure;Samples;Min_cycle;Max_cycle;Signal;HPM_P1;HPM_P2
2022/03/30 00:00:35;;;;;;;;;;;21.00;30.70;;;;;;5142506;27;19983;-59
2022/03/30 00:03:01;;;;;;;;;;;21.10;30.60;;;;;;5142355;27;20385;-59
2022/03/30 00:05:27;;;;;;;;;;;21.10;30.80;;;;;;5147459;27;19927;-57
2022/03/30 00:07:53;;;;;;;;;;;21.10;30.70;;;;;;5141566;27;20444;-59
2022/03/30 00:10:19;;;;;;;;;;;21.20;30.60;;;;;;5119862;27;20243;-58
2022/03/30 00:12:45;;;;;;;;;;;21.20;30.70;;;;;;5146354;27;20006;-60
2022/03/30 00:15:11;;;;;;;;;;;21.10;30.80;;;;;;5142051;27;19931;-59
2022/03/30 00:17:37;;;;;;;;;;;21.20;30.70;;;;;;5128420;27;20367;-56
2022/03/30 00:20:03;;;;;;;;;;;21.10;30.90;;;;;;5143054;27;19984;-60
2022/03/30 00:22:29;;;;;;;;;;;21.00;31.10;;;;;;5141844;27;19927;-59
2022/03/30 00:24:54;;;;;;;;;;;21.10;31.10;;;;;;5147170;27;19930;-57
2022/03/30 00:27:20;;;;;;;;;;;21.20;31.10;;;;;;5140655;27;19930;-55
2022/03/30 00:29:46;;;;;;;;;;;21.00;31.40;;;;;;5138181;27;19931;-55
2022/03/30 00:32:12;;;;;;;;;;;21.00;31.30;;;;;;5147366;27;20338;-57
2022/03/30 00:34:39;;;;;;;;;;;21.10;31.20;;;;;;5123532;27;19930;-60
2022/03/30 00:37:05;;;;;;;;;;;21.10;31.20;;;;;;5143885;27;19923;-56
2022/03/30 00:39:31;;;;;;;;;;;21.10;31.50;;;;;;5127421;27;20353;-59
2022/03/30 00:41:57;;;;;;;;;;;21.10;31.50;;;;;;5141751;27;19927;-57
2022/03/30 00:44:22;;;;;;;;;;;20.90;31.70;;;;;;5128475;27;19931;-52
2022/03/30 00:46:48;;;;;;;;;;;21.00;31.60;;;;;;5138724;27;19927;-54
2022/03/30 00:49:14;;;;;;;;;;;21.10;31.60;;;;;;5139967;27;19938;-57
2022/03/30 00:51:40;;;;;;;;;;;21.10;31.70;;;;;;5147305;27;20020;-59
2022/03/30 00:54:06;;;;;;;;;;;21.00;31.70;;;;;;5141809;27;19966;-57
2022/03/30 00:56:32;;;;;;;;;;;21.00;31.60;;;;;;5141708;27;20305;-58
2022/03/30 00:58:59;;;;;;;;;;;21.10;31.50;;;;;;5147889;27;19933;-58
2022/03/30 01:01:25;;;;;;;;;;;21.10;31.50;;;;;;5127043;27;19923;-60
2022/03/30 01:03:51;;;;;;;;;;;21.10;31.50;;;;;;5149803;27;19950;-59
2022/03/30 01:06:17;;;;;;;;;;;21.00;31.50;;;;;;5141549;27;19923;-58
2022/03/30 01:08:42;;;;;;;;;;;21.30;31.30;;;;;;5144984;27;19930;-58
2022/03/30 01:11:09;;;;;;;;;;;21.20;31.40;;;;;;5132539;27;19996;-59
2022/03/30 01:13:35;;;;;;;;;;;21.20;31.50;;;;;;5127031;27;19988;-54
2022/03/30 01:16:02;;;;;;;;;;;21.00;31.80;;;;;;5145377;27;20364;-59
2022/03/30 01:18:31;;;;;;;;;;;21.10;31.90;;;;;;5150754;27;19929;-55
2022/03/30 01:20:57;;;;;;;;;;;21.00;32.30;;;;;;5145014;27;20005;-59
2022/03/30 01:23:22;;;;;;;;;;;21.10;32.10;;;;;;5148336;27;19923;-58
2022/03/30 01:25:48;;;;;;;;;;;21.10;32.10;;;;;;5142591;27;19979;-54
2022/03/30 01:28:14;;;;;;;;;;;21.00;32.40;;;;;;5144933;27;19923;-56
2022/03/30 01:33:25;;;;;;;;;;;21.00;32.40;;;;;;5145007;27;19926;-60
2022/03/30 01:35:50;;;;;;;;;;;21.20;31.80;;;;;;5144914;27;19927;-59
2022/03/30 01:38:16;;;;;;;;;;;21.20;31.90;;;;;;5150027;27;19923;-50
2022/03/30 01:40:42;;;;;;;;;;;20.90;32.20;;;;;;5143944;27;20346;-58
2022/03/30 01:43:07;;;;;;;;;;;21.20;31.90;;;;;;5140872;27;20068;-59
2022/03/30 01:45:33;;;;;;;;;;;21.20;31.80;;;;;;5149591;27;19923;-57
2022/03/30 01:47:59;;;;;;;;;;;21.10;32.00;;;;;;5144635;27;19923;-56
2022/03/30 01:50:25;;;;;;;;;;;21.00;32.20;;;;;;5149971;27;19923;-60
2022/03/30 01:52:51;;;;;;;;;;;21.10;32.00;;;;;;5144284;27;19931;-59
2022/03/30 01:55:17;;;;;;;;;;;21.20;31.90;;;;;;5144225;27;20278;-58
2022/03/30 01:57:43;;;;;;;;;;;21.10;31.90;;;;;;5149829;27;19935;-59
2022/03/30 02:00:10;;;;;;;;;;;21.00;32.00;;;;;;5142582;27;19930;-57
2022/03/30 02:02:37;;;;;;;;;;;21.00;32.00;;;;;;5141259;27;19923;-59
2022/03/30 02:05:03;;;;;;;;;;;21.30;31.50;;;;;;5149547;27;19923;-58
2022/03/30 02:07:29;;;;;;;;;;;21.10;31.60;;;;;;5144480;27;19945;-57
2022/03/30 02:09:55;;;;;;;;;;;21.00;31.90;;;;;;5147817;27;19958;-53
2022/03/30 02:12:20;;;;;;;;;;;20.90;32.10;;;;;;5145673;27;19927;-59
2022/03/30 02:14:47;;;;;;;;;;;21.20;31.60;;;;;;5143962;27;20021;-48
2022/03/30 02:17:13;;;;;;;;;;;20.90;31.90;;;;;;5148894;27;19930;-58
2022/03/30 02:19:39;;;;;;;;;;;21.20;31.50;;;;;;5140214;27;19928;-57
2022/03/30 02:22:05;;;;;;;;;;;21.10;31.80;;;;;;5124492;27;20389;-52
2022/03/30 02:24:31;;;;;;;;;;;21.20;31.90;;;;;;5149289;27;20013;-59
2022/03/30 02:26:56;;;;;;;;;;;21.20;31.80;;;;;;5143812;27;20275;-58
2022/03/30 02:29:22;;;;;;;;;;;21.10;32.00;;;;;;5144720;27;19967;-56
2022/03/30 02:31:48;;;;;;;;;;;21.00;32.20;;;;;;5148710;27;20031;-59
2022/03/30 02:34:14;;;;;;;;;;;21.00;32.30;;;;;;5143253;27;19923;-54
2022/03/30 02:36:40;;;;;;;;;;;21.20;32.30;;;;;;5147707;27;19931;-57
2022/03/30 02:39:06;;;;;;;;;;;21.30;32.00;;;;;;5139947;27;20014;-59
2022/03/30 02:41:32;;;;;;;;;;;21.10;32.30;;;;;;5123361;27;20026;-52
2022/03/30 02:43:58;;;;;;;;;;;20.90;32.50;;;;;;5148962;27;20014;-56
2022/03/30 02:46:23;;;;;;;;;;;21.10;32.20;;;;;;5143436;27;20211;-59
2022/03/30 02:48:49;;;;;;;;;;;21.20;32.10;;;;;;5143343;27;19931;-58
2022/03/30 02:51:15;;;;;;;;;;;21.20;32.10;;;;;;5149038;27;19923;-57
2022/03/30 02:53:41;;;;;;;;;;;21.10;32.30;;;;;;5143566;27;19931;-57
2022/03/30 02:56:07;;;;;;;;;;;21.10;32.40;;;;;;5145868;27;19922;-58
2022/03/30 02:58:32;;;;;;;;;;;21.10;32.10;;;;;;5141419;27;21366;-58
2022/03/30 03:00:58;;;;;;;;;;;21.10;32.10;;;;;;5143339;27;19923;-57
2022/03/30 03:03:24;;;;;;;;;;;21.00;32.30;;;;;;5148832;27;20333;-61
2022/03/30 03:05:50;;;;;;;;;;;21.20;32.00;;;;;;5143233;27;19927;-55
2022/03/30 03:08:16;;;;;;;;;;;21.00;32.40;;;;;;5143113;27;20528;-56
2022/03/30 03:10:43;;;;;;;;;;;21.20;32.00;;;;;;5128964;27;20408;-58
2022/03/30 03:13:08;;;;;;;;;;;21.20;32.00;;;;;;5142096;27;19923;-59
2022/03/30 03:15:35;;;;;;;;;;;21.10;32.30;;;;;;5144229;27;19993;-58
2022/03/30 03:18:03;;;;;;;;;;;21.00;32.40;;;;;;5142568;27;20375;-56
2022/03/30 03:20:29;;;;;;;;;;;21.10;32.40;;;;;;5142866;27;19937;-60
2022/03/30 03:22:55;;;;;;;;;;;21.00;32.60;;;;;;5147924;27;19923;-55
2022/03/30 03:25:21;;;;;;;;;;;21.10;32.50;;;;;;5142718;27;19930;-58
2022/03/30 03:27:47;;;;;;;;;;;21.30;32.20;;;;;;5142662;27;19926;-55
2022/03/30 03:30:14;;;;;;;;;;;20.90;32.70;;;;;;5147847;27;19934;-59
2022/03/30 03:32:40;;;;;;;;;;;21.10;32.50;;;;;;5140577;27;20445;-57
2022/03/30 03:35:09;;;;;;;;;;;21.10;32.30;;;;;;5142590;27;19929;-57
2022/03/30 03:37:37;;;;;;;;;;;21.10;32.40;;;;;;5146501;27;20417;-57
2022/03/30 03:40:03;;;;;;;;;;;21.20;32.30;;;;;;5142668;27;20430;-59
2022/03/30 03:42:29;;;;;;;;;;;21.20;32.10;;;;;;5148247;27;19923;-61
2022/03/30 03:44:55;;;;;;;;;;;21.20;32.00;;;;;;5123965;27;20381;-57
2022/03/30 03:47:21;;;;;;;;;;;21.10;32.30;;;;;;5142456;27;19972;-49
2022/03/30 03:49:46;;;;;;;;;;;20.80;32.50;;;;;;5147272;27;19931;-59
2022/03/30 03:52:12;;;;;;;;;;;21.20;32.00;;;;;;5138653;27;20134;-56
2022/03/30 03:54:38;;;;;;;;;;;21.10;32.10;;;;;;5141728;27;19923;-57
2022/03/30 03:57:04;;;;;;;;;;;21.00;32.30;;;;;;5147972;27;19966;-55
2022/03/30 03:59:30;;;;;;;;;;;21.10;32.10;;;;;;5142270;27;19946;-58
2022/03/30 04:01:56;;;;;;;;;;;21.20;31.90;;;;;;5147981;27;20006;-58
2022/03/30 04:04:22;;;;;;;;;;;21.00;32.20;;;;;;5142310;27;20033;-60
2022/03/30 04:06:48;;;;;;;;;;;21.20;32.00;;;;;;5141770;27;20588;-60
2022/03/30 04:09:13;;;;;;;;;;;21.00;32.20;;;;;;5126015;27;19923;-51
2022/03/30 04:11:40;;;;;;;;;;;21.00;32.50;;;;;;5138728;27;19923;-57
2022/03/30 04:14:06;;;;;;;;;;;21.20;32.10;;;;;;5142263;27;20274;-57
2022/03/30 04:16:31;;;;;;;;;;;21.00;32.40;;;;;;5147817;27;19929;-58
2022/03/30 04:18:57;;;;;;;;;;;21.20;32.30;;;;;;5142040;27;19923;-58
2022/03/30 04:21:23;;;;;;;;;;;21.20;32.40;;;;;;5147415;27;19923;-49
2022/03/30 04:23:49;;;;;;;;;;;21.00;32.70;;;;;;5142019;27;19927;-58
2022/03/30 04:26:14;;;;;;;;;;;21.10;32.60;;;;;;5141626;27;19923;-58
2022/03/30 04:28:40;;;;;;;;;;;21.20;32.60;;;;;;5144432;27;20029;-58
2022/03/30 04:31:10;;;;;;;;;;;21.20;32.90;;;;;;5140009;27;19923;-58
2022/03/30 04:33:36;;;;;;;;;;;21.20;32.60;;;;;;5142314;27;20026;-59
2022/03/30 04:36:02;;;;;;;;;;;21.20;32.90;;;;;;5151801;27;19929;-54
2022/03/30 04:38:27;;;;;;;;;;;21.10;33.10;;;;;;5127733;27;20388;-57
2022/03/30 04:40:53;;;;;;;;;;;21.20;32.90;;;;;;5149455;27;19923;-55
2022/03/30 04:43:19;;;;;;;;;;;21.00;33.30;;;;;;5148235;27;19923;-48
2022/03/30 04:45:45;;;;;;;;;;;21.00;33.60;;;;;;5144754;27;19923;-55
2022/03/30 04:48:10;;;;;;;;;;;21.20;33.60;;;;;;5147277;27;19930;-51
2022/03/30 04:50:36;;;;;;;;;;;21.00;34.40;;;;;;5127135;27;20374;-58
2022/03/30 04:53:02;;;;;;;;;;;21.20;34.60;;;;;;5145720;27;19954;-58
2022/03/30 04:55:28;;;;;;;;;;;21.20;35.00;;;;;;5151135;27;20018;-54
2022/03/30 04:57:54;;;;;;;;;;;21.30;35.10;;;;;;5145732;27;19923;-59
2022/03/30 05:00:19;;;;;;;;;;;21.10;35.50;;;;;;5146584;27;19923;-58
2022/03/30 05:02:45;;;;;;;;;;;21.20;35.70;;;;;;5131592;27;19976;-57
2022/03/30 05:05:11;;;;;;;;;;;21.20;36.10;;;;;;5142928;27;19923;-59
2022/03/30 05:07:37;;;;;;;;;;;21.10;36.50;;;;;;5148179;27;19927;-56
2022/03/30 05:10:05;;;;;;;;;;;21.10;37.00;;;;;;5145651;27;19957;-58
2022/03/30 05:12:31;;;;;;;;;;;21.10;37.20;;;;;;5145677;27;19927;-59
2022/03/30 05:14:57;;;;;;;;;;;21.10;37.50;;;;;;5150625;27;19935;-59
2022/03/30 05:17:23;;;;;;;;;;;21.10;37.70;;;;;;5144816;27;19927;-58
2022/03/30 05:19:49;;;;;;;;;;;21.00;38.20;;;;;;5145252;27;19923;-57
2022/03/30 05:22:15;;;;;;;;;;;21.10;38.30;;;;;;5149838;27;19923;-58
2022/03/30 05:24:41;;;;;;;;;;;21.10;38.40;;;;;;5141459;27;19987;-50
2022/03/30 05:27:06;;;;;;;;;;;20.80;39.70;;;;;;5149395;27;19928;-58
2022/03/30 05:29:32;;;;;;;;;;;21.20;39.20;;;;;;5145008;27;19930;-58
2022/03/30 05:31:58;;;;;;;;;;;21.10;39.50;;;;;;5144855;27;19974;-50
2022/03/30 05:34:27;;;;;;;;;;;21.10;39.80;;;;;;5150690;27;19971;-58
2022/03/30 05:36:52;;;;;;;;;;;21.10;40.00;;;;;;5144998;27;19929;-55
2022/03/30 05:39:18;;;;;;;;;;;21.10;40.50;;;;;;5144744;27;20386;-57
2022/03/30 05:41:44;;;;;;;;;;;21.10;40.20;;;;;;5130148;27;19927;-54
2022/03/30 05:44:10;;;;;;;;;;;21.10;40.30;;;;;;5141289;27;19923;-58
2022/03/30 05:46:36;;;;;;;;;;;21.10;40.00;;;;;;5148806;27;19923;-55
2022/03/30 05:49:05;;;;;;;;;;;21.20;39.80;;;;;;5145324;27;19923;-59
2022/03/30 05:51:31;;;;;;;;;;;21.10;40.00;;;;;;5144454;27;19927;-47
2022/03/30 05:53:57;;;;;;;;;;;21.10;39.80;;;;;;5149996;27;19927;-59
2022/03/30 05:57:00;;;;;;;;;;;21.00;40.00;;;;;;5144543;27;19992;-54
2022/03/30 05:59:09;;;;;;;;;;;21.10;40.10;;;;;;5143972;27;20388;-59
2022/03/30 06:01:35;;;;;;;;;;;20.90;40.70;;;;;;5146401;27;19923;-56
2022/03/30 06:04:01;;;;;;;;;;;21.10;40.70;;;;;;5143150;27;19929;-56
2022/03/30 06:06:27;;;;;;;;;;;21.10;40.80;;;;;;5144128;27;19931;-48
2022/03/30 06:08:53;;;;;;;;;;;21.20;40.80;;;;;;5141113;27;19975;-58
2022/03/30 06:11:18;;;;;;;;;;;21.00;41.20;;;;;;5144274;27;19923;-52
2022/03/30 06:13:44;;;;;;;;;;;21.20;40.90;;;;;;5148859;27;19968;-58
2022/03/30 06:16:10;;;;;;;;;;;21.10;40.60;;;;;;5145150;27;20377;-50
2022/03/30 06:18:36;;;;;;;;;;;21.00;40.70;;;;;;5142780;27;20302;-59
2022/03/30 06:21:02;;;;;;;;;;;21.10;40.50;;;;;;5145625;27;20319;-57
2022/03/30 06:23:27;;;;;;;;;;;21.00;41.10;;;;;;5143878;27;19923;-58
2022/03/30 06:25:54;;;;;;;;;;;21.10;40.80;;;;;;5144001;27;19927;-57
2022/03/30 06:28:23;;;;;;;;;;;21.00;41.20;;;;;;5149275;27;19978;-57
2022/03/30 06:30:49;;;;;;;;;;;21.10;40.90;;;;;;5144004;27;19923;-50
2022/03/30 06:33:14;;;;;;;;;;;21.10;40.90;;;;;;5144583;27;19930;-57
2022/03/30 06:35:40;;;;;;;;;;;21.10;41.00;;;;;;5148541;27;19938;-55
2022/03/30 06:38:06;;;;;;;;;;;21.00;41.40;;;;;;5122352;27;20553;-58
2022/03/30 06:40:34;;;;;;;;;;;21.10;41.10;;;;;;5146761;27;19923;-57
2022/03/30 06:43:00;;;;;;;;;;;21.00;41.50;;;;;;5143651;27;19993;-58
2022/03/30 06:45:26;;;;;;;;;;;21.10;41.10;;;;;;5143680;27;20362;-58
2022/03/30 06:47:52;;;;;;;;;;;21.00;41.20;;;;;;5148930;27;19926;-57
2022/03/30 06:50:19;;;;;;;;;;;21.20;40.80;;;;;;5143392;27;19983;-58
2022/03/30 06:52:45;;;;;;;;;;;21.10;41.30;;;;;;5143276;27;19990;-57
2022/03/30 06:55:12;;;;;;;;;;;21.10;41.00;;;;;;5148028;27;19933;-57
2022/03/30 06:57:38;;;;;;;;;;;21.00;41.20;;;;;;5139254;27;19927;-59
2022/03/30 07:00:05;;;;;;;;;;;21.10;41.00;;;;;;5148232;27;19946;-58
2022/03/30 07:02:30;;;;;;;;;;;21.00;41.50;;;;;;5143223;27;19930;-59
2022/03/30 07:04:56;;;;;;;;;;;21.20;41.10;;;;;;5143107;27;19923;-56
2022/03/30 07:10:16;;;;;;;;;;;21.20;41.10;;;;;;5143185;27;19930;-58
2022/03/30 07:12:42;;;;;;;;;;;21.10;41.40;;;;;;5142539;27;20114;-58
2022/03/30 07:15:08;;;;;;;;;;;21.10;41.10;;;;;;5145383;27;19929;-49
2022/03/30 07:17:34;;;;;;;;;;;21.00;41.20;;;;;;5141310;27;20017;-59
2022/03/30 07:20:00;;;;;;;;;;;21.10;41.10;;;;;;5143185;27;19923;-49
2022/03/30 07:22:25;;;;;;;;;;;21.10;41.30;;;;;;5148349;27;19946;-58
2022/03/30 07:24:51;;;;;;;;;;;21.10;41.30;;;;;;5143142;27;19923;-57
2022/03/30 07:27:17;;;;;;;;;;;21.00;41.80;;;;;;5147655;27;19927;-54
2022/03/30 07:29:43;;;;;;;;;;;21.20;41.20;;;;;;5143846;27;19927;-57
2022/03/30 07:32:09;;;;;;;;;;;21.00;41.50;;;;;;5141625;27;19924;-54
2022/03/30 07:34:36;;;;;;;;;;;21.20;41.00;;;;;;5144265;27;19966;-51
2022/03/30 07:37:03;;;;;;;;;;;20.90;41.80;;;;;;5142192;27;19927;-55
2022/03/30 07:39:29;;;;;;;;;;;21.00;42.00;;;;;;5142676;27;19923;-57
2022/03/30 07:41:55;;;;;;;;;;;21.20;41.50;;;;;;5129637;27;19930;-58
2022/03/30 07:44:20;;;;;;;;;;;21.10;41.40;;;;;;5142669;27;19963;-51
2022/03/30 07:46:48;;;;;;;;;;;21.00;41.50;;;;;;5125092;27;19958;-59
2022/03/30 07:49:15;;;;;;;;;;;21.20;40.90;;;;;;5147397;27;20027;-57
2022/03/30 07:51:41;;;;;;;;;;;21.00;41.30;;;;;;5140379;27;20214;-54
2022/03/30 07:54:07;;;;;;;;;;;21.00;41.10;;;;;;5144827;27;19923;-56
2022/03/30 07:56:34;;;;;;;;;;;21.10;41.00;;;;;;5142380;27;19939;-58
2022/03/30 07:59:00;;;;;;;;;;;21.10;40.60;;;;;;5142176;27;20374;-58
2022/03/30 08:01:26;;;;;;;;;;;20.80;41.20;;;;;;5147670;27;19931;-58
2022/03/30 08:03:52;;;;;;;;;;;21.20;40.30;;;;;;5142200;27;19927;-58
2022/03/30 08:06:17;;;;;;;;;;;20.90;41.20;;;;;;5142186;27;19927;-55
2022/03/30 08:08:43;;;;;;;;;;;21.10;40.60;;;;;;5147659;27;19927;-58
2022/03/30 08:11:09;;;;;;;;;;;21.00;40.90;;;;;;5142990;27;19934;-49
2022/03/30 08:13:35;;;;;;;;;;;21.10;40.70;;;;;;5150824;27;19974;-48
2022/03/30 08:16:02;;;;;;;;;;;21.00;40.90;;;;;;5110911;27;19923;-59
2022/03/30 08:18:28;;;;;;;;;;;21.20;40.80;;;;;;5146397;27;20382;-49
2022/03/30 08:23:38;;;;;;;;;;;21.20;40.50;;;;;;5145957;27;20378;-55
2022/03/30 08:26:04;;;;;;;;;;;21.00;40.80;;;;;;5145883;27;19930;-56
2022/03/30 08:28:30;;;;;;;;;;;21.10;40.50;;;;;;5149624;27;19958;-55
2022/03/30 08:30:56;;;;;;;;;;;21.00;40.90;;;;;;5142955;27;20283;-57
2022/03/30 08:33:26;;;;;;;;;;;21.20;40.40;;;;;;5146264;27;19966;-58
2022/03/30 08:35:53;;;;;;;;;;;21.00;40.70;;;;;;5151692;27;19923;-50
2022/03/30 08:38:19;;;;;;;;;;;21.10;40.80;;;;;;5146058;27;20025;-58
2022/03/30 08:40:44;;;;;;;;;;;21.00;41.00;;;;;;5151561;27;19937;-57
2022/03/30 08:43:10;;;;;;;;;;;21.10;40.90;;;;;;5145647;27;19934;-54
2022/03/30 08:45:36;;;;;;;;;;;20.90;41.20;;;;;;5145077;27;19926;-57
2022/03/30 08:48:02;;;;;;;;;;;21.00;41.00;;;;;;5147782;27;20390;-55
2022/03/30 08:50:27;;;;;;;;;;;20.90;41.40;;;;;;5144813;27;19924;-58
2022/03/30 08:52:55;;;;;;;;;;;21.20;40.90;;;;;;5145870;27;20461;-50
2022/03/30 08:55:21;;;;;;;;;;;20.90;41.60;;;;;;5151333;27;19929;-58
2022/03/30 08:57:47;;;;;;;;;;;21.20;41.00;;;;;;5145739;27;19926;-56
2022/03/30 09:00:14;;;;;;;;;;;20.80;41.70;;;;;;5130876;27;20018;-57
2022/03/30 09:02:41;;;;;;;;;;;21.20;41.00;;;;;;5147987;27;19927;-59
2022/03/30 09:05:11;;;;;;;;;;;20.90;41.80;;;;;;5144014;27;19923;-57
2022/03/30 09:07:37;;;;;;;;;;;21.20;41.50;;;;;;5147055;27;19927;-49
2022/03/30 09:10:03;;;;;;;;;;;21.00;42.00;;;;;;5145225;27;20521;-57
2022/03/30 09:12:29;;;;;;;;;;;21.30;41.40;;;;;;5145721;27;19923;-57
2022/03/30 09:15:04;;;;;;;;;;;20.90;42.20;;;;;;5132411;27;20301;-58
2022/03/30 09:17:37;;;;;;;;;;;21.10;41.80;;;;;;5145309;27;20462;-55
2022/03/30 09:20:06;;;;;;;;;;;20.80;42.80;;;;;;5144810;27;22005;-57
2022/03/30 09:22:32;;;;;;;;;;;21.10;42.00;;;;;;5149831;27;19929;-58
2022/03/30 09:24:58;;;;;;;;;;;20.90;42.50;;;;;;5141404;27;20131;-58
2022/03/30 09:27:24;;;;;;;;;;;21.20;42.00;;;;;;5145565;27;20285;-58
2022/03/30 09:29:50;;;;;;;;;;;20.90;42.60;;;;;;5149225;27;19923;-58
2022/03/30 09:32:16;;;;;;;;;;;21.10;42.00;;;;;;5145043;27;19927;-57
2022/03/30 09:34:49;;;;;;;;;;;21.00;42.40;;;;;;5150416;27;19927;-56
2022/03/30 09:37:15;;;;;;;;;;;21.10;42.10;;;;;;5145002;27;19929;-57
2022/03/30 09:39:41;;;;;;;;;;;21.00;42.70;;;;;;5144682;27;19923;-57
2022/03/30 09:42:08;;;;;;;;;;;21.20;42.00;;;;;;5148483;27;20465;-47
2022/03/30 09:45:03;;;;;;;;;;;21.00;42.10;;;;;;5141081;27;19923;-56
2022/03/30 09:47:36;;;;;;;;;;;21.10;41.50;;;;;;5120087;27;19923;-55
2022/03/30 09:50:02;;;;;;;;;;;21.00;41.30;;;;;;5150309;27;20451;-59
2022/03/30 09:52:29;;;;;;;;;;;21.00;41.20;;;;;;5126028;27;19923;-57
2022/03/30 09:54:57;;;;;;;;;;;21.10;41.00;;;;;;5144570;27;19923;-51
2022/03/30 09:57:24;;;;;;;;;;;21.10;40.90;;;;;;5149948;27;19927;-58
2022/03/30 10:00:04;;;;;;;;;;;21.20;40.80;;;;;;5143696;27;19933;-58
2022/03/30 10:02:30;;;;;;;;;;;20.90;41.50;;;;;;5140250;27;19933;-59
2022/03/30 10:04:56;;;;;;;;;;;21.20;40.70;;;;;;5149357;27;19973;-57
2022/03/30 10:07:22;;;;;;;;;;;21.10;40.90;;;;;;5144175;27;20356;-56
2022/03/30 10:09:48;;;;;;;;;;;21.20;40.60;;;;;;5149913;27;19933;-59
2022/03/30 10:12:17;;;;;;;;;;;21.10;40.60;;;;;;5144684;27;20368;-53
2022/03/30 10:14:43;;;;;;;;;;;21.10;40.70;;;;;;5144184;27;19929;-55
2022/03/30 10:17:09;;;;;;;;;;;21.20;40.40;;;;;;5149475;27;19954;-53
2022/03/30 10:19:35;;;;;;;;;;;21.00;40.90;;;;;;5141506;27;19923;-53
2022/03/30 10:22:02;;;;;;;;;;;21.10;40.70;;;;;;5141343;27;20017;-58
2022/03/30 10:24:34;;;;;;;;;;;21.10;40.80;;;;;;5149657;27;19937;-54
2022/03/30 10:27:00;;;;;;;;;;;21.00;41.10;;;;;;5142311;27;19923;-58
2022/03/30 10:29:27;;;;;;;;;;;21.00;41.00;;;;;;5144059;27;19973;-52
2022/03/30 10:32:07;;;;;;;;;;;21.00;41.30;;;;;;5130063;27;19923;-59
2022/03/30 10:34:33;;;;;;;;;;;21.20;40.60;;;;;;5142421;27;19949;-52
2022/03/30 10:37:04;;;;;;;;;;;20.90;41.60;;;;;;5146676;27;19939;-58
2022/03/30 10:39:30;;;;;;;;;;;21.20;41.10;;;;;;5143786;27;19950;-56
2022/03/30 10:42:07;;;;;;;;;;;21.10;41.30;;;;;;5124535;27;19988;-53
2022/03/30 10:44:41;;;;;;;;;;;21.00;41.80;;;;;;5149095;27;19927;-58
2022/03/30 10:47:07;;;;;;;;;;;21.20;41.60;;;;;;5144101;27;19923;-58
2022/03/30 10:49:40;;;;;;;;;;;20.90;42.10;;;;;;5143571;27;19923;-56
2022/03/30 10:52:25;;;;;;;;;;;21.00;41.80;;;;;;5148990;27;20266;-58
2022/03/30 10:54:55;;;;;;;;;;;20.90;42.20;;;;;;5143263;27;19975;-59
2022/03/30 10:57:41;;;;;;;;;;;21.20;41.50;;;;;;5139665;27;20366;-55
2022/03/30 11:00:07;;;;;;;;;;;20.90;42.10;;;;;;5133715;27;19923;-58
2022/03/30 11:02:42;;;;;;;;;;;21.20;41.60;;;;;;5143292;27;19927;-57
2022/03/30 11:05:11;;;;;;;;;;;21.00;41.80;;;;;;5143355;27;19923;-48
2022/03/30 11:07:37;;;;;;;;;;;21.00;42.00;;;;;;5148810;27;19927;-58
2022/03/30 11:10:13;;;;;;;;;;;21.10;41.70;;;;;;5124809;27;20061;-54
2022/03/30 11:12:57;;;;;;;;;;;20.90;42.30;;;;;;5124408;27;19923;-58
2022/03/30 11:15:23;;;;;;;;;;;21.10;42.00;;;;;;5145002;27;19923;-57
2022/03/30 11:17:49;;;;;;;;;;;21.00;42.40;;;;;;5141326;27;19927;-58
2022/03/30 11:20:16;;;;;;;;;;;21.20;41.90;;;;;;5124651;27;19923;-55
2022/03/30 11:22:44;;;;;;;;;;;21.00;42.50;;;;;;5148321;27;20387;-58
2022/03/30 11:25:14;;;;;;;;;;;21.20;42.00;;;;;;5124611;27;19923;-55
2022/03/30 11:27:40;;;;;;;;;;;21.00;42.30;;;;;;5142737;27;19933;-56
2022/03/30 11:30:08;;;;;;;;;;;21.10;42.00;;;;;;5148327;27;20414;-58
2022/03/30 11:32:37;;;;;;;;;;;20.90;43.00;;;;;;5122635;27;20353;-56
2022/03/30 11:35:22;;;;;;;;;;;21.20;42.40;;;;;;5142719;27;19927;-54
2022/03/30 11:37:49;;;;;;;;;;;21.00;43.00;;;;;;5148057;27;19934;-57
2022/03/30 11:40:21;;;;;;;;;;;21.10;42.80;;;;;;5142758;27;20022;-56
2022/03/30 11:42:48;;;;;;;;;;;21.00;43.10;;;;;;5146847;27;20429;-57
2022/03/30 11:45:15;;;;;;;;;;;21.10;42.60;;;;;;5126161;27;20370;-55
2022/03/30 11:47:45;;;;;;;;;;;21.10;42.70;;;;;;5123916;27;19947;-52
2022/03/30 11:50:12;;;;;;;;;;;21.20;42.20;;;;;;5128729;27;20328;-56
2022/03/30 11:52:37;;;;;;;;;;;21.20;42.30;;;;;;5138736;27;19923;-54
2022/03/30 11:55:03;;;;;;;;;;;21.00;42.50;;;;;;5141180;27;19924;-59
2022/03/30 11:57:29;;;;;;;;;;;21.10;42.40;;;;;;5147641;27;20400;-57
2022/03/30 12:00:00;;;;;;;;;;;21.00;42.10;;;;;;5142591;27;19927;-58
2022/03/30 12:02:26;;;;;;;;;;;21.00;42.40;;;;;;5142495;27;19923;-53
2022/03/30 12:04:52;;;;;;;;;;;21.20;41.70;;;;;;5147872;27;19933;-55
2022/03/30 12:07:21;;;;;;;;;;;20.90;42.40;;;;;;5141662;27;19927;-57
2022/03/30 12:09:47;;;;;;;;;;;21.30;41.60;;;;;;5145783;27;20338;-56
2022/03/30 12:12:24;;;;;;;;;;;21.10;41.40;;;;;;5138742;27;19927;-55
2022/03/30 12:15:00;;;;;;;;;;;21.10;41.50;;;;;;5142037;27;19945;-55
2022/03/30 12:17:26;;;;;;;;;;;21.00;41.40;;;;;;5147735;27;20321;-54
2022/03/30 12:19:52;;;;;;;;;;;21.10;41.30;;;;;;5142385;27;19929;-59
2022/03/30 12:22:18;;;;;;;;;;;21.10;41.00;;;;;;5142170;27;19923;-59
2022/03/30 12:24:43;;;;;;;;;;;21.20;40.80;;;;;;5147371;27;19957;-58
2022/03/30 12:27:10;;;;;;;;;;;21.30;40.50;;;;;;5122872;27;19927;-59
2022/03/30 12:29:37;;;;;;;;;;;21.10;40.70;;;;;;5138267;27;20426;-58
2022/03/30 12:32:03;;;;;;;;;;;21.10;41.10;;;;;;5146398;27;20970;-58
2022/03/30 12:34:34;;;;;;;;;;;21.00;41.40;;;;;;5142460;27;20370;-59
2022/03/30 12:37:05;;;;;;;;;;;21.10;41.40;;;;;;5145941;27;20005;-57
2022/03/30 12:39:34;;;;;;;;;;;21.10;41.60;;;;;;5146503;27;19929;-57
2022/03/30 12:42:04;;;;;;;;;;;20.90;42.10;;;;;;5142036;27;19923;-53
2022/03/30 12:44:30;;;;;;;;;;;21.20;42.00;;;;;;5147002;27;19941;-57
2022/03/30 12:46:58;;;;;;;;;;;21.10;42.00;;;;;;5139572;27;19927;-48
2022/03/30 12:49:39;;;;;;;;;;;21.10;42.00;;;;;;5138805;27;20427;-57
2022/03/30 12:52:06;;;;;;;;;;;21.20;41.60;;;;;;5147466;27;19966;-58
2022/03/30 12:54:32;;;;;;;;;;;21.10;41.60;;;;;;5122053;27;20301;-57
2022/03/30 12:56:57;;;;;;;;;;;21.10;41.40;;;;;;5145599;27;19930;-58
2022/03/30 12:59:25;;;;;;;;;;;21.20;41.00;;;;;;5151027;27;20431;-54
2022/03/30 13:01:51;;;;;;;;;;;20.90;41.70;;;;;;5126809;27;19923;-57
2022/03/30 13:04:20;;;;;;;;;;;21.10;41.20;;;;;;5144897;27;20382;-53
2022/03/30 13:07:05;;;;;;;;;;;21.10;41.30;;;;;;5146818;27;19986;-57
2022/03/30 13:09:31;;;;;;;;;;;21.00;41.40;;;;;;5126425;27;20022;-55
2022/03/30 13:11:57;;;;;;;;;;;21.10;41.10;;;;;;5146246;27;20293;-57
2022/03/30 13:14:23;;;;;;;;;;;20.90;41.60;;;;;;5150797;27;20289;-58
2022/03/30 13:16:52;;;;;;;;;;;21.20;41.10;;;;;;5145411;27;19923;-58
2022/03/30 13:19:22;;;;;;;;;;;21.10;41.30;;;;;;5150604;27;19923;-47
2022/03/30 13:21:47;;;;;;;;;;;21.00;41.40;;;;;;5126756;27;19927;-57
2022/03/30 13:24:14;;;;;;;;;;;21.20;41.00;;;;;;5142412;27;19930;-58
2022/03/30 13:26:41;;;;;;;;;;;21.10;41.00;;;;;;5147787;27;19945;-49
2022/03/30 13:29:07;;;;;;;;;;;20.80;41.60;;;;;;5145146;27;19933;-57
2022/03/30 13:31:37;;;;;;;;;;;21.30;40.90;;;;;;5145117;27;19979;-56
2022/03/30 13:34:05;;;;;;;;;;;21.20;40.60;;;;;;5150430;27;19926;-55
2022/03/30 13:36:31;;;;;;;;;;;20.90;41.20;;;;;;5144707;27;20301;-58
2022/03/30 13:38:56;;;;;;;;;;;21.10;40.90;;;;;;5148123;27;19931;-58
2022/03/30 13:41:23;;;;;;;;;;;21.20;40.40;;;;;;5146371;27;20393;-56
2022/03/30 13:43:49;;;;;;;;;;;21.20;40.30;;;;;;5141097;27;19930;-58
2022/03/30 13:46:15;;;;;;;;;;;21.10;40.30;;;;;;5149642;27;19937;-59
2022/03/30 13:48:41;;;;;;;;;;;21.00;40.70;;;;;;5144761;27;19923;-58
2022/03/30 13:51:07;;;;;;;;;;;21.20;40.60;;;;;;5144750;27;20442;-58
2022/03/30 13:53:34;;;;;;;;;;;20.90;41.10;;;;;;5150127;27;20337;-58
2022/03/30 13:56:00;;;;;;;;;;;21.20;40.40;;;;;;5144307;27;19949;-47
2022/03/30 13:58:26;;;;;;;;;;;21.00;40.70;;;;;;5144295;27;19975;-54
2022/03/30 14:00:52;;;;;;;;;;;21.10;40.30;;;;;;5147766;27;19971;-58
2022/03/30 14:03:19;;;;;;;;;;;21.00;40.60;;;;;;5141448;27;20371;-56
2022/03/30 14:05:44;;;;;;;;;;;21.00;40.30;;;;;;5149862;27;19927;-47
2022/03/30 14:08:10;;;;;;;;;;;21.10;40.30;;;;;;5143680;27;19927;-56
2022/03/30 14:10:36;;;;;;;;;;;21.00;40.40;;;;;;5144535;27;20021;-54
2022/03/30 14:13:02;;;;;;;;;;;21.20;40.10;;;;;;5149709;27;19923;-58
2022/03/30 14:15:28;;;;;;;;;;;21.10;39.90;;;;;;5143903;27;19973;-51
2022/03/30 14:17:54;;;;;;;;;;;21.00;40.20;;;;;;5143586;27;20599;-54
2022/03/30 14:20:21;;;;;;;;;;;21.30;39.40;;;;;;5145807;27;19980;-51
2022/03/30 14:22:47;;;;;;;;;;;21.10;39.90;;;;;;5142938;27;19972;-58